createdAt,value
2022-10-09T00:04:50.089Z,0.00
2022-10-09T00:09:49.958Z,0.00
2022-10-09T00:14:49.934Z,0.00
2022-10-09T00:19:49.854Z,0.00
2022-10-09T00:24:49.785Z,0.00
2022-10-09T00:29:49.803Z,0.00
2022-10-09T00:34:49.665Z,0.00
2022-10-09T00:39:49.626Z,0.00
2022-10-09T00:44:49.606Z,0.00
2022-10-09T00:49:49.504Z,0.00
2022-10-09T00:54:49.435Z,0.00
2022-10-09T00:59:49.387Z,0.00
2022-10-09T01:04:49.324Z,0.00
2022-10-09T01:09:49.268Z,0.00
2022-10-09T01:14:49.204Z,0.00
2022-10-09T01:19:49.144Z,0.00
2022-10-09T01:24:49.098Z,0.00
2022-10-09T01:29:49.055Z,0.00
2022-10-09T01:34:48.964Z,0.00
2022-10-09T01:39:48.914Z,0.00
2022-10-09T01:44:48.826Z,0.00
2022-10-09T01:49:48.787Z,0.00
2022-10-09T01:54:48.726Z,0.00
2022-10-09T01:59:48.680Z,0.00
2022-10-09T02:04:48.646Z,0.00
2022-10-09T02:09:48.582Z,0.00
2022-10-09T02:14:48.485Z,0.00
2022-10-09T02:19:48.445Z,0.00
2022-10-09T02:24:48.380Z,0.00
2022-10-09T02:29:48.317Z,0.00
2022-10-09T02:34:48.298Z,0.00
2022-10-09T02:39:48.235Z,0.00
2022-10-09T02:44:48.167Z,0.00
2022-10-09T02:49:48.095Z,0.00
2022-10-09T02:54:48.037Z,0.00
2022-10-09T02:59:47.965Z,0.00
2022-10-09T03:04:47.910Z,0.00
2022-10-09T03:09:47.855Z,0.00
2022-10-09T03:14:47.794Z,0.00
2022-10-09T03:19:47.744Z,0.00
2022-10-09T03:24:47.676Z,0.00
2022-10-09T03:29:47.617Z,0.00
2022-10-09T03:34:47.567Z,0.00
2022-10-09T03:39:47.518Z,0.00
2022-10-09T03:44:47.504Z,0.00
2022-10-09T03:49:47.406Z,0.00
2022-10-09T03:54:47.332Z,0.00
2022-10-09T03:59:47.269Z,0.00
2022-10-09T04:04:47.212Z,0.00
2022-10-09T04:09:47.174Z,0.00
2022-10-09T04:14:47.099Z,0.00
2022-10-09T04:19:47.046Z,0.00
2022-10-09T04:24:46.996Z,0.00
2022-10-09T04:29:46.928Z,0.00
2022-10-09T04:34:46.882Z,0.00
2022-10-09T04:39:46.855Z,0.00
2022-10-09T04:44:46.761Z,0.00
2022-10-09T04:49:46.697Z,0.00
2022-10-09T04:54:46.645Z,1.00
2022-10-09T04:59:46.598Z,5.00
2022-10-09T05:04:46.548Z,12.00
2022-10-09T05:09:46.477Z,33.00
2022-10-09T05:14:46.432Z,73.00
2022-10-09T05:19:46.373Z,141.00
2022-10-09T05:24:46.335Z,231.00
2022-10-09T05:29:46.251Z,356.00
2022-10-09T05:34:46.192Z,517.00
2022-10-09T05:39:46.139Z,713.00
2022-10-09T05:44:46.089Z,879.00
2022-10-09T05:49:46.049Z,1079.00
2022-10-09T05:54:45.985Z,1278.00
2022-10-09T05:59:45.919Z,1480.00
2022-10-09T06:04:45.848Z,1857.00
2022-10-09T06:09:45.789Z,2119.00
2022-10-09T06:14:45.748Z,2454.00
2022-10-09T06:19:45.691Z,2747.00
2022-10-09T06:24:45.627Z,3016.00
2022-10-09T06:29:45.578Z,3393.00
2022-10-09T06:34:45.508Z,3544.00
2022-10-09T06:39:45.460Z,4034.00
2022-10-09T06:44:45.431Z,4361.00
2022-10-09T06:49:45.343Z,4284.00
2022-10-09T06:54:45.287Z,3988.00
2022-10-09T06:59:45.230Z,4290.00
2022-10-09T07:04:45.179Z,5433.00
2022-10-09T07:09:45.121Z,7248.00
2022-10-09T07:14:45.058Z,6586.00
2022-10-09T07:19:45.005Z,5823.00
2022-10-09T07:24:44.939Z,5817.00
2022-10-09T07:29:44.894Z,5774.00
2022-10-09T07:34:44.830Z,7229.00
2022-10-09T07:39:45.193Z,6463.00
2022-10-09T07:44:44.691Z,6668.00
2022-10-09T07:49:44.650Z,9303.00
2022-10-09T07:54:44.570Z,11103.00
2022-10-09T07:59:44.592Z,11140.00
2022-10-09T08:04:44.431Z,13832.00
2022-10-09T08:09:44.360Z,9089.00
2022-10-09T08:14:44.303Z,5867.00
2022-10-09T08:19:44.236Z,6743.00
2022-10-09T08:24:44.171Z,7670.00
2022-10-09T08:29:44.122Z,8096.00
2022-10-09T08:34:44.040Z,8177.00
2022-10-09T08:39:43.983Z,8498.00
2022-10-09T08:44:43.919Z,9441.00
2022-10-09T08:49:44.173Z,9679.00
2022-10-09T08:54:43.792Z,10028.00
2022-10-09T08:59:43.724Z,10619.00
2022-10-09T09:04:43.672Z,11011.00
2022-10-09T09:09:43.593Z,9544.00
2022-10-09T09:14:43.525Z,11658.00
2022-10-09T09:19:43.477Z,12868.00
2022-10-09T09:24:43.423Z,15666.00
2022-10-09T09:29:43.353Z,12741.00
2022-10-09T09:34:43.267Z,14050.00
2022-10-09T09:44:44.166Z,13171.00
2022-10-09T09:49:43.099Z,12081.00
2022-10-09T09:54:43.017Z,10287.00
2022-10-09T09:59:42.974Z,11185.00
2022-10-09T10:04:43.364Z,11717.00
2022-10-09T10:09:42.840Z,12498.00
2022-10-09T10:14:42.767Z,12700.00
2022-10-09T10:19:42.711Z,10716.00
2022-10-09T10:24:42.630Z,10809.00
2022-10-09T10:29:42.571Z,11067.00
2022-10-09T10:34:42.524Z,10298.00
2022-10-09T10:39:42.454Z,11080.00
2022-10-09T10:44:42.394Z,12264.00
2022-10-09T10:49:42.325Z,12057.00
2022-10-09T10:54:42.263Z,13661.00
2022-10-09T10:59:42.195Z,11169.00
2022-10-09T11:04:42.143Z,11494.00
2022-10-09T11:09:42.087Z,12569.00
2022-10-09T11:14:42.050Z,11885.00
2022-10-09T11:19:45.399Z,11204.00
2022-10-09T11:24:41.921Z,11917.00
2022-10-09T11:29:41.837Z,12610.00
2022-10-09T11:34:41.811Z,11652.00
2022-10-09T11:39:41.709Z,11775.00
2022-10-09T11:44:41.660Z,11303.00
2022-10-09T11:49:41.593Z,11223.00
2022-10-09T11:54:41.512Z,11847.00
2022-10-09T11:59:41.452Z,9784.00
2022-10-09T12:04:54.486Z,11206.00
2022-10-09T12:09:42.353Z,11320.00
2022-10-09T12:14:41.257Z,12222.00
2022-10-09T12:19:41.195Z,12029.00
2022-10-09T12:24:41.125Z,11928.00
2022-10-09T12:29:41.058Z,11587.00
2022-10-09T12:34:41.007Z,10345.00
2022-10-09T12:39:40.956Z,11475.00
2022-10-09T12:44:41.187Z,9864.00
2022-10-09T12:49:40.819Z,8527.00
2022-10-09T12:54:40.748Z,9402.00
2022-10-09T12:59:40.672Z,9414.00
2022-10-09T13:04:40.611Z,9786.00
2022-10-09T13:09:40.567Z,9559.00
2022-10-09T13:14:40.489Z,9732.00
2022-10-09T13:19:40.432Z,9365.00
2022-10-09T13:24:40.407Z,8882.00
2022-10-09T13:29:40.294Z,8858.00
2022-10-09T13:34:40.252Z,9217.00
2022-10-09T13:39:40.166Z,9610.00
2022-10-09T13:44:40.125Z,10214.00
2022-10-09T13:49:40.056Z,10544.00
2022-10-09T13:54:40.007Z,10111.00
2022-10-09T13:59:39.929Z,9309.00
2022-10-09T14:04:39.852Z,8114.00
2022-10-09T14:09:39.808Z,7117.00
2022-10-09T14:14:40.766Z,6269.00
2022-10-09T14:19:39.690Z,6162.00
2022-10-09T14:24:39.677Z,6476.00
2022-10-09T14:29:39.892Z,6618.00
2022-10-09T14:34:39.532Z,6527.00
2022-10-09T14:39:39.427Z,6499.00
2022-10-09T14:44:39.393Z,6233.00
2022-10-09T14:49:39.292Z,5811.00
2022-10-09T14:54:39.265Z,5438.00
2022-10-09T14:59:39.165Z,4986.00
2022-10-09T15:04:39.187Z,4613.00
2022-10-09T15:09:39.046Z,4386.00
2022-10-09T15:14:38.980Z,4117.00
2022-10-09T15:19:38.916Z,3735.00
2022-10-09T15:24:38.882Z,3277.00
2022-10-09T15:29:38.759Z,2890.00
2022-10-09T15:34:40.948Z,2592.00
2022-10-09T15:39:38.680Z,2289.00
2022-10-09T15:44:38.576Z,2060.00
2022-10-09T15:49:38.529Z,1828.00
2022-10-09T15:54:38.461Z,1532.00
2022-10-09T15:59:38.404Z,1259.00
2022-10-09T16:04:38.361Z,1028.00
2022-10-09T16:09:38.258Z,828.00
2022-10-09T16:14:38.213Z,672.00
2022-10-09T16:19:38.156Z,529.00
2022-10-09T16:24:38.104Z,394.00
2022-10-09T16:29:38.001Z,284.00
2022-10-09T16:34:37.974Z,191.00
2022-10-09T16:39:37.886Z,108.00
2022-10-09T16:44:37.825Z,49.00
2022-10-09T16:49:37.755Z,25.00
2022-10-09T16:54:37.692Z,10.00
2022-10-09T16:59:37.646Z,4.00
2022-10-09T17:04:37.585Z,1.00
2022-10-09T17:09:37.485Z,0.00
2022-10-09T17:14:37.469Z,0.00
2022-10-09T17:19:37.387Z,0.00
2022-10-09T17:24:37.308Z,0.00
2022-10-09T17:29:37.283Z,0.00
2022-10-09T17:34:37.188Z,0.00
2022-10-09T17:39:37.110Z,0.00
2022-10-09T17:44:37.058Z,0.00
2022-10-09T17:49:36.980Z,0.00
2022-10-09T17:54:36.927Z,0.00
2022-10-09T17:59:36.858Z,0.00
2022-10-09T18:04:36.839Z,0.00
2022-10-09T18:09:36.740Z,0.00
2022-10-09T18:14:36.692Z,0.00
2022-10-09T18:19:36.613Z,0.00
2022-10-09T18:24:36.542Z,0.00
2022-10-09T18:29:36.482Z,0.00
2022-10-09T18:34:39.203Z,0.00
2022-10-09T18:39:36.362Z,0.00
2022-10-09T18:44:36.327Z,0.00
2022-10-09T18:49:36.275Z,0.00
2022-10-09T18:54:36.181Z,0.00
2022-10-09T18:59:36.124Z,0.00
2022-10-09T19:04:36.058Z,0.00
2022-10-09T19:09:35.985Z,0.00
2022-10-09T19:14:35.953Z,0.00
2022-10-09T19:19:35.864Z,0.00
2022-10-09T19:24:35.786Z,0.00
2022-10-09T19:29:35.734Z,0.00
2022-10-09T19:34:35.666Z,0.00
2022-10-09T19:39:35.598Z,0.00
2022-10-09T19:44:35.559Z,0.00
2022-10-09T19:49:35.499Z,0.00
2022-10-09T19:54:35.408Z,0.00
2022-10-09T19:59:35.346Z,0.00
2022-10-09T20:04:35.298Z,0.00
2022-10-09T20:09:35.244Z,0.00
2022-10-09T20:14:35.164Z,0.00
2022-10-09T20:19:35.100Z,0.00
2022-10-09T20:24:35.030Z,0.00
2022-10-09T20:29:34.970Z,0.00
2022-10-09T20:34:34.930Z,0.00
2022-10-09T20:39:34.837Z,0.00
2022-10-09T20:44:34.803Z,0.00
2022-10-09T20:49:34.713Z,0.00
2022-10-09T20:54:34.665Z,0.00
2022-10-09T20:59:34.592Z,0.00
2022-10-09T21:04:34.543Z,0.00
2022-10-09T21:09:34.443Z,0.00
2022-10-09T21:14:34.395Z,0.00
2022-10-09T21:19:34.323Z,0.00
2022-10-09T21:24:34.293Z,0.00
2022-10-09T21:29:34.194Z,0.00
2022-10-09T21:34:34.144Z,0.00
2022-10-09T21:39:34.107Z,0.00
2022-10-09T21:44:34.023Z,0.00
2022-10-09T21:49:33.968Z,0.00
2022-10-09T21:54:33.916Z,0.00
2022-10-09T21:59:33.813Z,0.00
2022-10-09T22:04:33.755Z,0.00
2022-10-09T22:09:33.678Z,0.00
2022-10-09T22:14:33.636Z,0.00
2022-10-09T22:19:33.578Z,0.00
2022-10-09T22:24:33.497Z,0.00
2022-10-09T22:29:33.418Z,0.00
2022-10-09T22:34:33.377Z,0.00
2022-10-09T22:39:33.286Z,0.00
2022-10-09T22:44:33.227Z,0.00
2022-10-09T22:49:33.163Z,0.00
2022-10-09T22:54:33.119Z,0.00
2022-10-09T22:59:33.044Z,0.00
2022-10-09T23:04:32.973Z,0.00
2022-10-09T23:09:32.889Z,0.00
2022-10-09T23:14:32.880Z,0.00
2022-10-09T23:19:32.759Z,0.00
2022-10-09T23:24:32.686Z,0.00
2022-10-09T23:29:32.641Z,0.00
2022-10-09T23:34:32.549Z,0.00
2022-10-09T23:39:32.479Z,0.00
2022-10-09T23:44:32.410Z,0.00
2022-10-09T23:49:32.383Z,0.00
2022-10-09T23:54:32.284Z,0.00
2022-10-09T23:59:32.202Z,0.00
